Latest Weather Observations for Singleton (Defence)

IDN60801

Issued at 11:52 pm EST Wednesday 24 April 2019 (issued every 10 minutes, with the page automatically refreshed every 10 minutes)

About weather observations | Map of weather stations | Latest weather observations for NSW | Other Formats
Station Details ID: 061430 Name: SINGLETON (DEFENCE) Lat: -32.70 Lon: 151.16 Height: 125.0 m
Data from the previous 72 hours. | See also: Recent months for locations in New South Wales
Date/Time
EST
Temp
°C
App
Temp
°C
Dew
Point
°C
Rel
Hum
%
Delta-T
°C
Wind Press
QNH
hPa
Press
MSL
hPa
Rain since
9am
mm
Dir  Spd
km/h
Gust
km/h
Spd
kts
Gust
kts
24/11:30pm 16.4 16.5 13.9 85 1.4 ESE 6 6 3 3 - - 0.0
24/11:00pm 17.1 17.4 14.6 85 1.4 ESE 6 6 3 3 - - 0.0
24/10:30pm 17.4 18.1 14.5 83 1.7 ESE 4 6 2 3 - - 0.0
24/10:00pm 18.1 18.4 14.6 80 2.0 ESE 6 7 3 4 - - 0.0
24/09:30pm 18.1 18.3 14.6 80 2.0 ESE 7 9 4 5 - - 0.0
24/09:00pm 18.9 18.4 14.8 77 2.4 ESE 11 17 6 9 - - 0.0
24/08:30pm 19.1 18.6 14.8 76 2.5 ESE 11 17 6 9 - - 0.0
24/08:00pm 19.4 18.5 14.9 75 2.6 SE 13 19 7 10 - - 0.0
24/07:30pm 19.8 18.6 15.0 74 2.8 ESE 15 20 8 11 - - 0.0
24/07:00pm 20.1 18.5 15.1 73 3.0 ESE 17 24 9 13 - - 0.0
24/06:30pm 20.5 18.6 15.1 71 3.2 ESE 19 26 10 14 - - 0.0
24/06:00pm 20.9 19.3 15.0 69 3.5 ESE 17 22 9 12 - - 0.0
24/05:30pm 21.6 19.5 14.7 65 4.1 E 19 24 10 13 - - 0.0
24/05:00pm 22.9 21.2 13.7 56 5.4 E 15 22 8 12 - - 0.0
24/04:30pm 24.1 22.3 12.1 47 6.9 E 13 19 7 10 - - 0.0
24/04:00pm 24.8 22.7 12.4 46 7.2 E 15 20 8 11 - - 0.0
24/03:30pm 24.9 23.3 12.8 47 7.0 ESE 13 20 7 11 - - 0.0
24/03:00pm 25.3 23.5 13.2 47 7.1 E 15 20 8 11 - - 0.0
24/02:30pm 25.0 24.3 13.2 48 6.9 E 9 15 5 8 - - 0.0
24/02:00pm 25.2 24.1 12.1 44 7.5 E 9 17 5 9 - - 0.0
24/01:30pm 26.4 26.1 13.2 44 7.8 E 7 19 4 10 - - 0.0
24/01:00pm 25.6 25.3 12.8 45 7.5 E 6 9 3 5 - - 0.0
24/12:30pm 25.5 25.6 14.0 49 6.8 N 6 11 3 6 - - 0.0
24/12:00pm 24.4 22.9 12.0 46 7.1 NE 11 20 6 11 - - 0.0
24/11:30am 24.6 23.5 13.2 49 6.7 NE 11 19 6 10 - - 0.0
24/11:00am 23.7 23.3 14.1 55 5.7 NE 9 15 5 8 - - 0.0
24/10:30am 23.3 23.2 14.0 56 5.5 ENE 7 13 4 7 - - 0.0
24/10:00am 22.0 22.3 14.6 63 4.4 NE 6 13 3 7 - - 0.0
24/09:30am 22.0 22.1 15.4 66 4.0 ENE 9 13 5 7 - - 0.0
24/09:00am 21.7 21.4 15.5 68 3.7 NE 11 15 6 8 - - 0.0
24/08:30am 21.6 22.3 16.1 71 3.3 E 7 11 4 6 - - 0.0
24/08:00am 20.2 20.1 16.0 77 2.5 ESE 11 15 6 8 - - 0.0
24/07:30am 18.3 18.2 16.1 87 1.3 SE 11 13 6 7 - - 0.0
24/07:00am 16.9 17.0 15.6 92 0.8 SE 9 11 5 6 - - 0.0
24/06:30am 16.6 16.7 15.5 93 0.6 SE 9 13 5 7 - - 0.0
24/06:00am 16.9 17.4 15.6 92 0.8 SE 7 9 4 5 - - 0.0
24/05:30am 16.9 16.6 15.4 91 0.9 SE 11 13 6 7 - - 0.0
24/05:00am 17.3 17.1 15.6 90 1.0 SE 11 15 6 8 - - 0.0
24/04:30am 17.8 17.6 15.6 87 1.3 SE 11 15 6 8 - - 0.0
24/04:00am 17.8 17.6 15.6 87 1.3 SE 11 17 6 9 - - 0.0
24/03:30am 17.5 16.5 15.5 88 1.2 SE 15 17 8 9 - - 0.0
24/03:00am 17.8 16.8 15.6 87 1.3 SE 15 19 8 10 - - 0.0
24/02:30am 17.5 16.8 15.3 87 1.3 SE 13 17 7 9 - - 0.0
24/02:00am 18.1 17.4 15.5 85 1.5 ESE 13 17 7 9 - - 0.0
24/01:30am 17.9 17.2 15.5 86 1.4 SE 13 15 7 8 - - 0.0
24/01:00am 18.3 17.7 15.6 84 1.6 SE 13 19 7 10 - - 0.0
24/12:30am 18.6 17.6 15.5 82 1.8 SE 15 19 8 10 - - 0.0
24/12:00am 18.8 17.8 15.5 81 2.0 SE 15 20 8 11 - - 0.0
 
Date/Time
EST
Temp
°C
App
Temp
°C
Dew
Point
°C
Rel
Hum
%
Delta-T
°C
Wind Press
QNH
hPa
Press
MSL
hPa
Rain since
9am
mm
Dir  Spd
km/h
Gust
km/h
Spd
kts
Gust
kts
23/11:30pm 19.0 17.5 15.3 79 2.2 ESE 17 20 9 11 - - 0.0
23/11:00pm 19.3 17.4 15.2 77 2.4 SE 19 24 10 13 - - 0.0
23/10:30pm 19.4 17.8 15.1 76 2.5 ESE 17 22 9 12 - - 0.0
23/10:00pm 19.4 18.1 15.7 79 2.2 ESE 17 22 9 12 - - 0.0
23/09:30pm 19.7 18.5 16.2 80 2.1 ESE 17 24 9 13 - - 0.0
23/09:00pm 19.8 18.7 16.4 81 2.1 SE 17 24 9 13 - - 0.0
23/08:30pm 19.9 18.5 16.5 81 2.1 ESE 19 28 10 15 - - 0.0
23/08:00pm 20.1 19.1 16.5 80 2.2 ESE 17 24 9 13 - - 0.0
23/07:30pm 20.4 19.0 16.6 79 2.3 ESE 19 24 10 13 - - 0.0
23/07:00pm 20.7 19.6 16.3 76 2.7 SE 17 24 9 13 - - 0.0
23/06:30pm 21.0 18.8 16.0 73 3.0 ESE 22 32 12 17 - - 0.0
23/06:00pm 21.4 19.8 15.9 71 3.3 ESE 19 26 10 14 - - 0.0
23/05:30pm 22.0 20.0 14.9 64 4.2 ESE 19 24 10 13 - - 0.0
23/05:00pm 22.9 19.9 14.7 60 4.9 ESE 24 37 13 20 - - 0.0
23/04:30pm 23.8 21.7 15.3 59 5.1 ESE 20 28 11 15 - - 0.0
23/04:00pm 24.7 22.6 15.3 56 5.7 ESE 20 32 11 17 - - 0.0
23/03:30pm 25.5 23.4 14.6 51 6.5 ESE 19 28 10 15 - - 0.0
23/03:00pm 25.9 24.2 14.7 50 6.7 ESE 17 24 9 13 - - 0.0
23/02:30pm 25.6 23.7 14.1 49 6.8 ESE 17 28 9 15 - - 0.0
23/02:00pm 25.5 23.3 14.3 50 6.7 ESE 19 28 10 15 - - 0.0
23/01:30pm 25.6 23.0 13.8 48 7.0 E 20 28 11 15 - - 0.0
23/01:00pm 25.2 23.1 14.6 51 6.4 E 19 24 10 13 - - 0.0
23/12:30pm 25.6 24.1 15.3 53 6.3 ESE 17 26 9 14 - - 0.0
23/12:00pm 25.5 23.8 14.6 51 6.5 ENE 17 28 9 15 - - 0.0
23/11:30am 25.2 23.5 15.8 56 5.7 ENE 19 26 10 14 - - 0.0
23/11:00am 24.2 23.5 15.4 58 5.3 E 13 20 7 11 - - 0.0
23/10:30am 23.5 23.7 15.8 62 4.7 ENE 9 15 5 8 - - 0.0
23/10:00am 23.0 23.1 15.6 63 4.5 ENE 9 17 5 9 - - 0.0
23/09:30am 21.8 22.6 15.9 69 3.6 SSE 6 9 3 5 - - 0.0
23/09:00am 20.7 21.4 15.7 73 3.0 SSW 6 9 3 5 - - 0.0
23/08:30am 19.2 20.4 15.9 81 2.0 SSW 4 6 2 3 - - 0.0
23/08:00am 17.4 19.0 15.0 86 1.4 CALM 0 6 0 3 - - 0.0
23/07:30am 16.0 16.4 14.7 92 0.7 SSW 6 7 3 4 - - 0.0
23/07:00am 15.2 15.4 14.2 94 0.6 SSW 6 7 3 4 - - 0.0
23/06:30am 14.9 15.9 14.3 96 0.3 SSW 2 4 1 2 - - 0.0
23/06:00am 15.2 15.3 14.4 95 0.5 SSW 7 9 4 5 - - 0.0
23/05:30am 15.3 15.3 14.3 94 0.6 SSE 7 9 4 5 - - 0.0
23/05:00am 15.0 15.1 14.0 94 0.6 SSE 6 7 3 4 - - 0.0
23/04:30am 15.0 15.1 14.0 94 0.6 SSE 6 9 3 5 - - 0.0
23/04:00am 15.5 15.7 14.2 92 0.7 SSE 6 7 3 4 - - 0.0
23/03:30am 16.2 17.0 14.7 91 0.9 SSE 4 6 2 3 - - 0.0
23/03:00am 16.7 17.1 14.7 88 1.2 SSE 6 9 3 5 - - 0.0
23/02:30am 16.5 16.2 14.5 88 1.2 SSE 9 11 5 6 - - 0.0
23/02:00am 17.6 17.6 15.2 86 1.4 SSE 9 13 5 7 - - 0.0
23/01:30am 17.5 17.4 15.0 85 1.5 SSE 9 13 5 7 - - 0.0
23/01:00am 17.8 17.8 15.2 85 1.5 SSE 9 11 5 6 - - 0.0
23/12:30am 18.2 18.0 15.6 85 1.5 SSE 11 15 6 8 - - 0.0
23/12:00am 18.7 17.8 15.9 84 1.7 SE 15 20 8 11 - - 0.0
 
Date/Time
EST
Temp
°C
App
Temp
°C
Dew
Point
°C
Rel
Hum
%
Delta-T
°C
Wind Press
QNH
hPa
Press
MSL
hPa
Rain since
9am
mm
Dir  Spd
km/h
Gust
km/h
Spd
kts
Gust
kts
22/11:30pm 18.6 18.9 16.0 85 1.6 SE 9 15 5 8 - - 0.0
22/11:00pm 19.1 18.7 16.3 84 1.7 SE 13 19 7 10 - - 0.0
22/10:30pm 18.6 18.2 16.2 86 1.4 SE 13 19 7 10 - - 0.0
22/10:00pm 19.1 18.8 16.5 85 1.6 SSE 13 17 7 9 - - 0.0
22/09:30pm 19.1 19.1 16.3 84 1.7 SE 11 15 6 8 - - 0.0
22/09:00pm 19.8 19.6 16.6 82 1.9 ESE 13 20 7 11 - - 0.0
22/08:30pm 20.1 18.8 16.7 81 2.1 ESE 19 24 10 13 - - 0.0
22/08:00pm 20.6 18.7 16.8 79 2.3 ESE 22 32 12 17 - - 0.0
22/07:30pm 20.9 19.0 16.7 77 2.6 ESE 22 30 12 16 - - 0.0
22/07:00pm 21.3 19.7 16.5 74 2.9 ESE 20 28 11 15 - - 0.0
22/06:30pm 21.5 19.6 15.1 67 3.8 ESE 19 22 10 12 - - 0.0
22/06:00pm 21.6 20.5 14.3 63 4.3 ESE 13 17 7 9 - - 0.0
22/05:30pm 22.4 21.2 14.0 59 4.9 ESE 13 17 7 9 - - 0.0
22/05:00pm 23.5 21.5 13.9 55 5.6 E 17 22 9 12 - - 0.0
22/04:30pm 24.5 22.7 13.4 50 6.5 ESE 15 20 8 11 - - 0.0
22/04:00pm 25.2 23.5 13.7 49 6.8 E 15 20 8 11 - - 0.0
22/03:30pm 25.7 24.6 14.2 49 6.9 E 13 20 7 11 - - 0.0
22/03:00pm 25.5 24.7 14.0 49 6.8 E 11 17 6 9 - - 0.0
22/02:30pm 25.1 25.3 15.7 56 5.7 E 9 15 5 8 - - 0.0
22/02:00pm 25.1 25.0 14.9 53 6.1 E 9 15 5 8 - - 0.0
22/01:30pm 25.0 24.7 14.5 52 6.3 E 9 17 5 9 - - 0.0
22/01:00pm 24.7 25.3 15.3 56 5.7 E 6 11 3 6 - - 0.0
22/12:30pm 24.4 25.0 15.3 57 5.5 NE 6 11 3 6 - - 0.0
22/12:00pm 23.6 24.1 15.6 61 4.8 NE 7 15 4 8 - - 0.0
22/11:30am 23.7 25.0 16.2 63 4.6 NE 4 11 2 6 - - 0.0
22/11:00am 23.0 24.1 16.5 67 4.0 NE 6 9 3 5 - - 0.0
22/10:30am 22.4 23.1 16.2 68 3.8 ENE 7 13 4 7 - - 0.0
22/10:00am 22.0 22.8 15.8 68 3.7 N 6 9 3 5 - - 0.0
22/09:30am 21.3 22.7 16.3 73 3.0 N 4 7 2 4 - - 0.0
22/09:00am 20.0 22.0 17.0 83 1.8 N 2 6 1 3 - - 0.0
22/08:30am 17.1 19.1 16.1 94 0.6 CALM 0 2 0 1 - - 0.0
22/08:00am 16.3 18.1 15.5 95 0.5 CALM 0 0 0 0 - - 0.0
22/07:30am 16.2 16.9 15.6 96 0.4 N 6 7 3 4 - - 0.0
22/07:00am 15.7 16.2 15.1 96 0.3 ENE 6 9 3 5 - - 0.0
22/06:30am 15.7 16.3 15.2 97 0.3 ENE 6 7 3 4 - - 0.0
22/06:00am 15.7 17.4 15.2 97 0.3 CALM 0 0 0 0 - - 0.0
22/05:30am 15.8 17.0 15.0 95 0.5 SSW 2 4 1 2 - - 0.0
22/05:00am 15.9 16.9 15.3 96 0.3 SSW 4 6 2 3 - - 0.0
22/04:30am 16.6 17.7 15.5 93 0.6 SSW 4 6 2 3 - - 0.0
22/04:00am 16.9 18.9 15.9 94 0.6 CALM 0 0 0 0 - - 0.0
22/03:30am 16.8 17.7 15.2 90 0.9 SSW 4 6 2 3 - - 0.0
22/03:00am 17.5 18.3 15.8 90 1.0 SSW 6 9 3 5 - - 0.0
22/02:30am 17.7 18.0 16.0 90 1.0 SSW 9 13 5 7 - - 0.0
22/02:00am 17.5 17.8 16.0 91 0.9 S 9 13 5 7 - - 0.0
22/01:30am 18.1 18.7 15.7 86 1.4 SE 7 9 4 5 - - 0.0
22/01:00am 18.0 18.8 15.8 87 1.3 SE 6 9 3 5 - - 0.0
22/12:30am 18.4 17.9 16.0 86 1.4 SE 13 15 7 8 - - 0.0
22/12:00am 18.7 19.3 15.9 84 1.7 SE 7 11 4 6 - - 0.0

Other formats

Comma delimited format used in spreadsheet applications
http://www.bom.gov.au/fwo/IDN60801/IDN60801.99738.axf

JavaScript Object Notation format (JSON) in row-major order
http://www.bom.gov.au/fwo/IDN60801/IDN60801.99738.json

Data quality

Most of these data are generated automatically and are frequently updated. Quality checks on data are not normally performed. It is possible for incorrect values to appear. Refer to information at About Latest Weather Observations and please check the disclaimer before using these data.